createdAt,value
2022-11-20T00:01:49.734Z,99399.75
2022-11-20T00:04:51.332Z,99401.59
2022-11-20T00:07:52.703Z,99409.03
2022-11-20T00:10:54.098Z,99415.34
2022-11-20T00:13:58.694Z,99420.75
2022-11-20T00:17:00.112Z,99421.81
2022-11-20T00:20:01.617Z,99423.28
2022-11-20T00:23:03.132Z,99423.22
2022-11-20T00:26:09.690Z,99424.81
2022-11-20T00:29:11.627Z,99425.09
2022-11-20T00:32:13.001Z,99424.22
2022-11-20T00:35:14.580Z,99424.59
2022-11-20T00:38:15.979Z,99427.28
2022-11-20T00:41:17.548Z,99435.41
2022-11-20T00:44:18.926Z,99420.59
2022-11-20T00:47:20.306Z,99429.91
2022-11-20T00:50:21.928Z,99428.09
2022-11-20T00:53:23.929Z,99419.66
2022-11-20T00:56:25.416Z,99427.91
2022-11-20T00:59:26.827Z,99427.16
2022-11-20T01:02:28.363Z,99434.06
2022-11-20T01:05:29.791Z,99435.06
2022-11-20T01:08:33.135Z,99419.94
2022-11-20T01:11:38.570Z,99433.19
2022-11-20T01:14:40.023Z,99425.94
2022-11-20T01:17:41.382Z,99426.47
2022-11-20T01:20:42.803Z,99425.81
2022-11-20T01:23:45.325Z,99425.22
2022-11-20T01:26:49.446Z,99429.47
2022-11-20T01:29:51.268Z,99434.81
2022-11-20T01:32:52.695Z,99425.53
2022-11-20T01:35:54.444Z,99429.94
2022-11-20T01:38:58.615Z,99431.72
2022-11-20T01:42:18.495Z,99429.34
2022-11-20T01:45:55.625Z,99426.63
2022-11-20T01:49:03.346Z,99425.28
2022-11-20T01:52:12.239Z,99421.72
2022-11-20T01:55:22.915Z,99420.94
2022-11-20T01:58:30.745Z,99413.94
2022-11-20T02:01:34.150Z,99412.38
2022-11-20T02:04:35.715Z,99414.25
2022-11-20T02:07:37.928Z,99420.97
2022-11-20T02:10:39.812Z,99419.03
2022-11-20T02:13:44.070Z,99414.84
2022-11-20T02:16:47.791Z,99419.50
2022-11-20T02:19:49.216Z,99407.59
2022-11-20T02:23:13.040Z,99405.00
2022-11-20T02:26:16.924Z,99404.03
2022-11-20T02:29:26.845Z,99392.84
2022-11-20T02:32:31.222Z,99399.97
2022-11-20T02:35:32.660Z,99398.75
2022-11-20T02:38:34.030Z,99388.19
2022-11-20T02:41:37.465Z,99393.78
2022-11-20T02:44:38.869Z,99398.75
2022-11-20T02:47:40.528Z,99399.97
2022-11-20T02:50:41.962Z,99399.19
2022-11-20T02:53:43.389Z,99405.66
2022-11-20T02:56:44.835Z,99407.25
2022-11-20T02:59:46.435Z,99410.78
2022-11-20T03:02:47.818Z,99414.19
2022-11-20T03:05:49.192Z,99417.47
2022-11-20T03:08:50.676Z,99420.03
2022-11-20T03:11:52.253Z,99417.66
2022-11-20T03:14:53.655Z,99421.16
2022-11-20T03:17:56.347Z,99415.53
2022-11-20T03:20:59.804Z,99419.13
2022-11-20T03:24:01.909Z,99419.41
2022-11-20T03:27:03.308Z,99418.34
2022-11-20T03:30:05.737Z,99417.66
2022-11-20T03:33:07.171Z,99412.19
2022-11-20T03:36:11.735Z,99419.03
2022-11-20T03:39:13.211Z,99426.06
2022-11-20T03:42:33.239Z,99425.22
2022-11-20T03:45:34.739Z,99420.03
2022-11-20T03:48:36.171Z,99418.44
2022-11-20T03:51:37.629Z,99420.66
2022-11-20T03:54:39.043Z,99424.38
2022-11-20T03:57:40.468Z,99421.28
2022-11-20T04:00:41.896Z,99417.13
2022-11-20T04:03:44.289Z,99411.09
2022-11-20T04:06:45.632Z,99410.28
2022-11-20T04:09:47.036Z,99406.97
2022-11-20T04:12:48.407Z,99415.72
2022-11-20T04:15:49.870Z,99409.94
2022-11-20T04:18:56.228Z,99405.09
2022-11-20T04:21:57.599Z,99392.63
2022-11-20T04:24:58.983Z,99397.16
2022-11-20T04:28:00.439Z,99396.88
2022-11-20T04:31:10.782Z,99405.44
2022-11-20T04:34:12.621Z,99409.72
2022-11-20T04:37:14.069Z,99413.59
2022-11-20T04:40:15.509Z,99408.13
2022-11-20T04:43:16.923Z,99416.78
2022-11-20T04:46:20.448Z,99409.31
2022-11-20T04:49:22.280Z,99412.53
2022-11-20T04:52:23.870Z,99407.69
2022-11-20T04:55:25.280Z,99416.03
2022-11-20T04:58:26.666Z,99411.31
2022-11-20T05:01:28.057Z,99406.03
2022-11-20T05:04:29.639Z,99413.38
2022-11-20T05:07:31.079Z,99412.97
2022-11-20T05:10:32.539Z,99402.09
2022-11-20T05:13:34.318Z,99405.94
2022-11-20T05:16:36.929Z,99397.97
2022-11-20T05:19:38.239Z,99396.75
2022-11-20T05:22:39.598Z,99399.53
2022-11-20T05:25:40.963Z,99404.34
2022-11-20T05:28:42.439Z,99401.00
2022-11-20T05:31:43.820Z,99402.34
2022-11-20T05:34:45.189Z,99401.41
2022-11-20T05:37:46.574Z,99396.31
2022-11-20T05:40:47.954Z,99392.50
2022-11-20T05:43:50.727Z,99393.28
2022-11-20T05:46:52.270Z,99394.84
2022-11-20T05:49:53.801Z,99384.41
2022-11-20T05:52:55.242Z,99385.16
2022-11-20T05:55:58.090Z,99401.53
2022-11-20T05:58:59.618Z,99410.63
2022-11-20T06:02:01.049Z,99405.84
2022-11-20T06:05:02.446Z,99410.09
2022-11-20T06:08:03.928Z,99411.06
2022-11-20T06:11:11.768Z,99411.06
2022-11-20T06:14:13.164Z,99416.66
2022-11-20T06:17:14.610Z,99419.44
2022-11-20T06:20:16.116Z,99408.72
2022-11-20T06:23:17.562Z,99410.13
2022-11-20T06:26:24.482Z,99408.44
2022-11-20T06:29:28.802Z,99410.66
2022-11-20T06:32:34.202Z,99405.16
2022-11-20T06:35:35.845Z,99407.63
2022-11-20T06:38:38.000Z,99401.69
2022-11-20T06:41:39.394Z,99410.47
2022-11-20T06:44:40.821Z,99402.66
2022-11-20T06:47:42.226Z,99403.34
2022-11-20T06:50:43.636Z,99408.13
2022-11-20T06:53:45.443Z,99404.41
2022-11-20T06:56:49.984Z,99410.25
2022-11-20T06:59:51.493Z,99407.06
2022-11-20T07:02:52.880Z,99417.06
2022-11-20T07:05:58.796Z,99422.34
2022-11-20T07:09:00.254Z,99417.19
2022-11-20T07:12:01.719Z,99428.56
2022-11-20T07:15:03.527Z,99426.81
2022-11-20T07:18:04.950Z,99419.81
2022-11-20T07:21:10.932Z,99429.56
2022-11-20T07:24:12.393Z,99434.09
2022-11-20T07:27:13.977Z,99438.19
2022-11-20T07:30:16.519Z,99439.16
2022-11-20T07:33:18.107Z,99438.06
2022-11-20T07:36:19.564Z,99444.56
2022-11-20T07:39:21.252Z,99440.94
2022-11-20T07:42:23.011Z,99445.88
2022-11-20T07:45:26.131Z,99446.13
2022-11-20T07:48:27.790Z,99448.63
2022-11-20T07:51:30.336Z,99452.09
2022-11-20T07:54:31.778Z,99460.72
2022-11-20T07:57:33.215Z,99461.44
2022-11-20T08:00:34.695Z,99458.91
2022-11-20T08:03:38.708Z,99453.72
2022-11-20T08:06:40.217Z,99459.47
2022-11-20T08:09:42.542Z,99464.31
2022-11-20T08:13:06.647Z,99469.66
2022-11-20T08:16:08.030Z,99474.56
2022-11-20T08:19:09.717Z,99475.38
2022-11-20T08:22:11.101Z,99473.06
2022-11-20T08:25:12.487Z,99478.72
2022-11-20T08:28:20.688Z,99482.00
2022-11-20T08:31:25.417Z,99488.41
2022-11-20T08:34:26.837Z,99497.91
2022-11-20T08:37:28.214Z,99499.41
2022-11-20T08:40:29.705Z,99499.69
2022-11-20T08:43:31.197Z,99504.78
2022-11-20T08:46:36.329Z,99506.16
2022-11-20T08:49:37.807Z,99510.50
2022-11-20T08:52:40.031Z,99506.81
2022-11-20T08:55:41.504Z,99516.16
2022-11-20T08:59:10.330Z,99516.66
2022-11-20T09:02:04.426Z,99515.03
2022-11-20T09:05:06.209Z,99511.31
2022-11-20T09:08:07.720Z,99522.59
2022-11-20T09:11:09.300Z,99518.06
2022-11-20T09:14:10.755Z,99527.38
2022-11-20T09:17:14.551Z,99534.97
2022-11-20T09:20:17.086Z,99539.75
2022-11-20T09:23:18.988Z,99541.63
2022-11-20T09:26:20.466Z,99540.13
2022-11-20T09:29:22.576Z,99541.06
2022-11-20T09:32:24.283Z,99542.84
2022-11-20T09:35:25.716Z,99545.16
2022-11-20T09:38:27.147Z,99545.00
2022-11-20T09:41:48.731Z,99545.44
2022-11-20T09:45:16.996Z,99546.09
2022-11-20T09:48:57.444Z,99547.22
2022-11-20T09:52:27.555Z,99549.47
2022-11-20T09:55:31.770Z,99544.38
2022-11-20T09:58:42.769Z,99552.56
2022-11-20T10:01:45.621Z,99546.59
2022-11-20T10:05:09.028Z,99548.94
2022-11-20T10:08:24.956Z,99544.88
2022-11-20T10:11:55.975Z,99553.16
2022-11-20T10:15:06.523Z,99556.41
2022-11-20T10:18:28.203Z,99551.03
2022-11-20T10:21:48.121Z,99545.13
2022-11-20T10:25:20.789Z,99545.69
2022-11-20T10:28:40.271Z,99546.34
2022-11-20T10:31:45.490Z,99537.41
2022-11-20T10:35:06.048Z,99535.22
2022-11-20T10:38:54.603Z,99545.75
2022-11-20T10:41:57.554Z,99537.72
2022-11-20T10:45:12.383Z,99539.09
2022-11-20T10:48:33.116Z,99528.16
2022-11-20T10:51:56.098Z,99518.28
2022-11-20T10:55:26.525Z,99512.03
2022-11-20T10:58:30.960Z,99499.75
2022-11-20T11:01:32.440Z,99495.13
2022-11-20T11:04:43.654Z,99489.78
2022-11-20T11:07:46.953Z,99478.78
2022-11-20T11:10:57.346Z,99476.66
2022-11-20T11:14:13.260Z,99466.84
2022-11-20T11:17:32.837Z,99459.97
2022-11-20T11:20:34.422Z,99449.69
2022-11-20T11:23:39.849Z,99456.06
2022-11-20T11:27:00.178Z,99449.72
2022-11-20T11:30:14.945Z,99447.34
2022-11-20T11:33:25.159Z,99443.66
2022-11-20T11:36:26.604Z,99435.66
2022-11-20T11:39:31.383Z,99433.66
2022-11-20T11:42:33.067Z,99428.84
2022-11-20T11:45:34.500Z,99425.97
2022-11-20T11:48:35.910Z,99420.66
2022-11-20T11:51:47.815Z,99412.28
2022-11-20T11:54:57.765Z,99415.75
2022-11-20T11:58:15.109Z,99402.78
2022-11-20T12:01:45.738Z,99403.56
2022-11-20T12:05:14.288Z,99398.78
2022-11-20T12:08:28.545Z,99399.47
2022-11-20T12:11:55.386Z,99396.28
2022-11-20T12:14:58.009Z,99397.16
2022-11-20T12:17:59.598Z,99401.09
2022-11-20T12:21:29.027Z,99397.09
2022-11-20T12:24:38.717Z,99405.16
2022-11-20T12:28:17.490Z,99401.22
2022-11-20T12:31:34.681Z,99389.38
2022-11-20T12:34:41.463Z,99399.44
2022-11-20T12:37:55.615Z,99387.00
2022-11-20T12:41:40.191Z,99393.41
2022-11-20T12:45:10.611Z,99397.19
2022-11-20T12:48:35.944Z,99385.03
2022-11-20T12:51:58.851Z,99384.22
2022-11-20T12:55:29.495Z,99378.09
2022-11-20T12:58:45.606Z,99380.44
2022-11-20T13:01:56.773Z,99381.63
2022-11-20T13:05:43.354Z,99380.16
2022-11-20T13:08:56.869Z,99376.88
2022-11-20T13:12:27.185Z,99367.41
2022-11-20T13:15:37.563Z,99348.38
2022-11-20T13:18:42.554Z,99351.28
2022-11-20T13:21:52.444Z,99342.84
2022-11-20T13:24:54.003Z,99343.97
2022-11-20T13:27:58.068Z,99336.69
2022-11-20T13:31:00.162Z,99329.19
2022-11-20T13:34:05.874Z,99328.00
2022-11-20T13:37:29.520Z,99335.50
2022-11-20T13:40:31.024Z,99328.16
2022-11-20T13:43:36.057Z,99323.59
2022-11-20T13:46:43.723Z,99324.88
2022-11-20T13:49:45.918Z,99321.84
2022-11-20T13:53:09.227Z,99321.56
2022-11-20T13:56:28.012Z,99326.56
2022-11-20T13:59:48.429Z,99317.03
2022-11-20T14:03:17.254Z,99308.03
2022-11-20T14:06:41.516Z,99308.16
2022-11-20T14:09:54.415Z,99304.22
2022-11-20T14:12:56.476Z,99296.50
2022-11-20T14:15:59.061Z,99292.22
2022-11-20T14:19:20.385Z,99282.44
2022-11-20T14:22:27.314Z,99282.53
2022-11-20T14:25:28.929Z,99276.59
2022-11-20T14:28:31.788Z,99270.09
2022-11-20T14:31:33.367Z,99261.59
2022-11-20T14:34:39.977Z,99250.41
2022-11-20T14:37:42.138Z,99252.59
2022-11-20T14:40:44.360Z,99246.09
2022-11-20T14:43:48.639Z,99248.16
2022-11-20T14:46:52.179Z,99237.69
2022-11-20T14:49:55.782Z,99231.47
2022-11-20T14:52:59.751Z,99221.34
2022-11-20T14:56:02.911Z,99224.75
2022-11-20T14:59:04.488Z,99223.97
2022-11-20T15:02:13.741Z,99217.72
2022-11-20T15:05:16.553Z,99217.03
2022-11-20T15:08:18.521Z,99225.53
2022-11-20T15:11:34.331Z,99224.19
2022-11-20T15:14:37.533Z,99219.94
2022-11-20T15:17:40.960Z,99224.50
2022-11-20T15:20:43.522Z,99226.66
2022-11-20T15:23:45.349Z,99228.25
2022-11-20T15:26:46.847Z,99221.56
2022-11-20T15:29:48.365Z,99226.53
2022-11-20T15:32:49.940Z,99216.78
2022-11-20T15:35:51.450Z,99214.72
2022-11-20T15:38:53.089Z,99213.88
2022-11-20T15:41:54.547Z,99200.00
2022-11-20T15:44:56.128Z,99203.09
2022-11-20T15:47:57.679Z,99193.97
2022-11-20T15:51:27.523Z,99211.44
2022-11-20T15:54:29.046Z,99205.84
2022-11-20T15:57:30.521Z,99208.31
2022-11-20T16:00:32.062Z,99206.09
2022-11-20T16:03:33.794Z,99204.94
2022-11-20T16:06:35.236Z,99207.69
2022-11-20T16:09:36.783Z,99202.81
2022-11-20T16:12:57.036Z,99205.75
2022-11-20T16:16:00.448Z,99214.72
2022-11-20T16:19:02.219Z,99207.13
2022-11-20T16:22:04.202Z,99202.88
2022-11-20T16:25:06.139Z,99204.75
2022-11-20T16:28:07.704Z,99209.69
2022-11-20T16:31:14.468Z,99194.63
2022-11-20T16:34:17.423Z,99185.47
2022-11-20T16:37:18.845Z,99180.94
2022-11-20T16:40:20.389Z,99180.88
2022-11-20T16:43:21.828Z,99183.50
2022-11-20T16:46:24.990Z,99186.31
2022-11-20T16:49:26.456Z,99181.94
2022-11-20T16:52:28.371Z,99164.78
2022-11-20T16:55:29.783Z,99187.00
2022-11-20T16:58:31.233Z,99172.75
2022-11-20T17:01:32.933Z,99160.22
2022-11-20T17:04:34.536Z,99154.66
2022-11-20T17:07:37.816Z,99153.34
2022-11-20T17:10:39.289Z,99146.72
2022-11-20T17:13:40.929Z,99150.00
2022-11-20T17:16:42.938Z,99158.34
2022-11-20T17:19:44.387Z,99164.25
2022-11-20T17:22:46.029Z,99161.19
2022-11-20T17:25:47.431Z,99163.06
2022-11-20T17:29:01.144Z,99167.53
2022-11-20T17:32:02.858Z,99168.53
2022-11-20T17:35:04.570Z,99165.53
2022-11-20T17:38:06.034Z,99160.16
2022-11-20T17:41:08.803Z,99164.69
2022-11-20T17:44:12.499Z,99169.69
2022-11-20T17:47:14.000Z,99163.28
2022-11-20T17:50:15.513Z,99183.72
2022-11-20T17:53:17.093Z,99176.56
2022-11-20T17:56:37.695Z,99185.72
2022-11-20T17:59:39.109Z,99180.34
2022-11-20T18:02:40.574Z,99190.59
2022-11-20T18:05:42.061Z,99188.00
2022-11-20T18:08:43.821Z,99186.38
2022-11-20T18:11:45.488Z,99186.69
2022-11-20T18:14:47.177Z,99192.91
2022-11-20T18:17:48.759Z,99189.16
2022-11-20T18:20:53.585Z,99190.09
2022-11-20T18:23:56.086Z,99189.25
2022-11-20T18:26:58.806Z,99180.00
2022-11-20T18:30:00.187Z,99174.88
2022-11-20T18:33:01.780Z,99165.16
2022-11-20T18:36:21.835Z,99171.06
2022-11-20T18:39:24.122Z,99170.63
2022-11-20T18:42:44.169Z,99167.44
2022-11-20T18:45:45.783Z,99158.94
2022-11-20T18:48:47.299Z,99161.09
2022-11-20T18:51:48.786Z,99162.19
2022-11-20T18:54:50.708Z,99154.06
2022-11-20T18:57:52.541Z,99148.84
2022-11-20T19:00:53.945Z,99146.91
2022-11-20T19:03:55.613Z,99149.56
2022-11-20T19:06:57.096Z,99140.38
2022-11-20T19:10:03.292Z,99144.38
2022-11-20T19:13:05.231Z,99141.34
2022-11-20T19:16:09.591Z,99144.84
2022-11-20T19:19:11.901Z,99147.91
2022-11-20T19:22:13.401Z,99152.25
2022-11-20T19:25:14.828Z,99144.53
2022-11-20T19:28:16.392Z,99156.31
2022-11-20T19:31:26.329Z,99163.97
2022-11-20T19:34:27.730Z,99163.13
2022-11-20T19:37:29.208Z,99170.28
2022-11-20T19:40:30.792Z,99169.03
2022-11-20T19:43:32.488Z,99161.88
2022-11-20T19:46:35.647Z,99157.53
2022-11-20T19:49:37.339Z,99160.50
2022-11-20T19:52:38.747Z,99167.56
2022-11-20T19:55:40.143Z,99171.50
2022-11-20T19:58:42.090Z,99173.06
2022-11-20T20:01:43.637Z,99168.31
2022-11-20T20:04:46.861Z,99183.38
2022-11-20T20:07:48.263Z,99185.09
2022-11-20T20:10:49.652Z,99179.66
2022-11-20T20:13:51.441Z,99173.44
2022-11-20T20:16:52.873Z,99180.00
2022-11-20T20:19:54.379Z,99178.56
2022-11-20T20:22:55.847Z,99192.13
2022-11-20T20:25:57.343Z,99191.78
2022-11-20T20:29:00.698Z,99196.25
2022-11-20T20:32:02.328Z,99193.13
2022-11-20T20:35:05.308Z,99194.63
2022-11-20T20:38:06.756Z,99187.31
2022-11-20T20:41:08.433Z,99185.94
2022-11-20T20:44:28.395Z,99193.03
2022-11-20T20:47:31.625Z,99187.13
2022-11-20T20:50:33.115Z,99185.50
2022-11-20T20:53:34.524Z,99179.63
2022-11-20T20:56:35.977Z,99201.94
2022-11-20T20:59:37.418Z,99204.31
2022-11-20T21:02:38.840Z,99195.75
2022-11-20T21:05:40.272Z,99198.16
2022-11-20T21:08:44.244Z,99196.13
2022-11-20T21:11:46.148Z,99200.47
2022-11-20T21:14:47.636Z,99210.63
2022-11-20T21:17:49.103Z,99204.88
2022-11-20T21:21:09.649Z,99206.41
2022-11-20T21:24:11.064Z,99202.81
2022-11-20T21:27:12.481Z,99206.78
2022-11-20T21:30:14.058Z,99213.34
2022-11-20T21:33:15.470Z,99223.31
2022-11-20T21:36:19.603Z,99223.50
2022-11-20T21:39:21.880Z,99221.59
2022-11-20T21:42:23.220Z,99216.38
2022-11-20T21:45:24.630Z,99221.97
2022-11-20T21:48:29.819Z,99216.75
2022-11-20T21:51:31.369Z,99220.19
2022-11-20T21:54:35.630Z,99223.91
2022-11-20T21:57:37.031Z,99239.66
2022-11-20T22:00:38.407Z,99245.16
2022-11-20T22:03:40.481Z,99255.28
2022-11-20T22:06:42.176Z,99247.59
2022-11-20T22:09:44.020Z,99245.28
2022-11-20T22:12:45.389Z,99248.88
2022-11-20T22:16:00.253Z,99244.75
2022-11-20T22:19:03.229Z,99239.66
2022-11-20T22:22:04.617Z,99233.88
2022-11-20T22:25:06.281Z,99227.63
2022-11-20T22:28:07.653Z,99228.72
2022-11-20T22:31:11.080Z,99235.03
2022-11-20T22:34:13.235Z,99228.97
2022-11-20T22:37:14.731Z,99230.09
2022-11-20T22:40:16.460Z,99216.13
2022-11-20T22:43:17.891Z,99225.19
2022-11-20T22:46:19.971Z,99223.47
2022-11-20T22:49:21.591Z,99236.63
2022-11-20T22:52:22.991Z,99233.13
2022-11-20T22:55:24.385Z,99252.28
2022-11-20T22:58:31.261Z,99244.22
2022-11-20T23:01:34.807Z,99248.69
2022-11-20T23:04:36.186Z,99238.53
2022-11-20T23:07:40.982Z,99244.03
2022-11-20T23:10:42.701Z,99229.00
2022-11-20T23:13:44.996Z,99219.44
2022-11-20T23:16:46.412Z,99218.72
2022-11-20T23:19:47.795Z,99209.94
2022-11-20T23:22:49.326Z,99212.69
2022-11-20T23:25:50.719Z,99203.78
2022-11-20T23:28:54.293Z,99217.25
2022-11-20T23:31:55.711Z,99215.88
2022-11-20T23:34:57.107Z,99210.13
2022-11-20T23:37:58.496Z,99210.13
2022-11-20T23:41:00.208Z,99205.16
2022-11-20T23:44:01.591Z,99190.53
2022-11-20T23:47:03.017Z,99182.38
2022-11-20T23:50:04.738Z,99186.78
2022-11-20T23:53:06.731Z,99177.16
2022-11-20T23:56:08.154Z,99179.41
2022-11-20T23:59:09.718Z,99170.34
